Time;durP1;ratioP1;P1;durP2;ratioP2;P2;SDS_P1;SDS_P2;PMS_P1;PMS_P2;Temp;Humidity;BMP_temperature;BMP_pressure;BME280_temperature;BME280_humidity;BME280_pressure;Samples;Min_cycle;Max_cycle;Signal;HPM_P1;HPM_P2
2022/04/27 00:00:48;;;;;;;18.40;7.80;;;;;;;4.77;100.00;101738.75;5007776;28;20483;-74
2022/04/27 00:03:14;;;;;;;16.63;6.93;;;;;;;4.83;100.00;101748.94;5025463;28;20032;-74
2022/04/27 00:05:39;;;;;;;14.03;6.23;;;;;;;4.75;100.00;101748.59;5013464;28;20029;-74
2022/04/27 00:08:05;;;;;;;14.40;6.60;;;;;;;4.86;100.00;101751.38;5024047;28;20041;-73
2022/04/27 00:10:30;;;;;;;15.77;6.40;;;;;;;4.78;100.00;101753.69;5025503;28;20025;-74
2022/04/27 00:12:56;;;;;;;13.23;6.03;;;;;;;4.73;100.00;101737.28;5024843;28;20052;-73
2022/04/27 00:15:23;;;;;;;14.43;5.47;;;;;;;4.71;100.00;101733.03;5013201;28;20398;-74
2022/04/27 00:17:48;;;;;;;12.55;6.63;;;;;;;4.70;100.00;101737.44;5022480;28;20044;-73
2022/04/27 00:20:14;;;;;;;15.73;6.43;;;;;;;4.64;100.00;101736.06;5007469;28;20033;-73
2022/04/27 00:22:39;;;;;;;16.20;7.87;;;;;;;4.58;100.00;101741.75;5021125;28;20295;-73
2022/04/27 00:25:05;;;;;;;14.20;7.30;;;;;;;4.50;100.00;101743.19;5025347;28;20029;-73
2022/04/27 00:27:31;;;;;;;16.52;8.90;;;;;;;4.42;100.00;101738.38;5007575;28;20081;-73
2022/04/27 00:29:58;;;;;;;12.27;5.70;;;;;;;4.35;100.00;101737.09;5010969;28;20442;-73
2022/04/27 00:32:24;;;;;;;18.65;6.88;;;;;;;4.34;100.00;101743.34;5011543;28;20127;-73
2022/04/27 00:34:50;;;;;;;14.98;7.68;;;;;;;4.26;100.00;101742.94;5028127;28;20021;-73
2022/04/27 00:37:15;;;;;;;15.80;7.43;;;;;;;4.20;100.00;101744.19;5028367;28;20095;-73
2022/04/27 00:39:41;;;;;;;16.73;6.88;;;;;;;4.11;100.00;101742.13;5028803;28;20116;-73
2022/04/27 00:42:16;;;;;;;22.42;6.10;;;;;;;4.10;100.00;101740.44;5029399;28;20681;-74
2022/04/27 00:44:45;;;;;;;14.77;6.32;;;;;;;4.07;100.00;101744.09;5028167;28;20534;-74
2022/04/27 00:47:12;;;;;;;17.85;6.55;;;;;;;4.00;100.00;101756.00;5029465;28;20045;-74
2022/04/27 00:49:41;;;;;;;16.17;6.72;;;;;;;3.96;100.00;101760.66;5027694;28;20075;-74
2022/04/27 00:52:12;;;;;;;12.15;6.10;;;;;;;3.93;100.00;101765.25;5027819;28;20048;-74
2022/04/27 00:54:42;;;;;;;14.57;7.60;;;;;;;3.87;100.00;101755.09;5027466;28;20032;-74
2022/04/27 00:57:08;;;;;;;17.40;7.65;;;;;;;3.93;100.00;101763.50;5028079;28;20037;-73
2022/04/27 00:59:34;;;;;;;17.20;7.70;;;;;;;3.88;100.00;101767.34;5027615;28;20029;-74
2022/04/27 01:02:29;;;;;;;13.70;7.22;;;;;;;3.87;100.00;101770.94;4999662;28;20037;-74
2022/04/27 01:04:54;;;;;;;11.38;7.22;;;;;;;3.81;100.00;101772.16;5026768;28;20530;-74
2022/04/27 01:07:20;;;;;;;15.70;7.03;;;;;;;3.81;100.00;101757.13;5027726;28;20108;-74
2022/04/27 01:09:46;;;;;;;20.70;8.63;;;;;;;3.86;100.00;101769.22;5027487;28;20100;-74
2022/04/27 01:12:11;;;;;;;18.60;7.70;;;;;;;3.83;100.00;101780.81;5011182;28;20382;-75
2022/04/27 01:14:48;;;;;;;15.70;7.75;;;;;;;3.77;100.00;101774.13;5027693;28;20033;-74
2022/04/27 01:17:14;;;;;;;16.25;8.85;;;;;;;3.78;100.00;101778.47;5011390;28;20079;-74
2022/04/27 01:19:39;;;;;;;19.73;8.23;;;;;;;3.77;100.00;101775.94;5027265;28;20029;-74
2022/04/27 01:22:05;;;;;;;14.68;6.88;;;;;;;3.83;100.00;101787.91;5019122;28;20037;-74
2022/04/27 01:24:36;;;;;;;14.98;7.43;;;;;;;3.83;100.00;101791.41;5027219;28;20025;-74
2022/04/27 01:27:02;;;;;;;11.75;7.15;;;;;;;3.84;100.00;101792.25;5027423;28;20041;-74
2022/04/27 01:29:27;;;;;;;12.98;7.15;;;;;;;3.84;100.00;101797.53;5027370;28;20561;-74
2022/04/27 01:31:53;;;;;;;19.30;7.87;;;;;;;3.87;100.00;101797.34;5018593;28;20116;-74
2022/04/27 01:34:19;;;;;;;26.73;8.00;;;;;;;3.93;100.00;101796.97;5028481;28;20464;-74
2022/04/27 01:36:45;;;;;;;16.75;7.00;;;;;;;3.97;100.00;101794.03;5027192;28;20043;-74
2022/04/27 01:39:11;;;;;;;15.65;8.35;;;;;;;3.95;100.00;101795.09;5026232;28;20737;-74
2022/04/27 01:41:37;;;;;;;14.85;7.13;;;;;;;3.92;100.00;101792.63;5027963;28;20087;-74
2022/04/27 01:44:04;;;;;;;19.33;7.63;;;;;;;3.91;100.00;101791.78;5027335;28;20087;-73
2022/04/27 01:46:30;;;;;;;15.75;8.25;;;;;;;3.93;100.00;101791.69;5018872;28;20031;-74
2022/04/27 01:48:56;;;;;;;15.93;7.97;;;;;;;3.89;100.00;101798.13;5026529;28;20380;-74
2022/04/27 01:54:16;;;;;;;14.02;6.65;;;;;;;3.86;100.00;101803.56;5026386;28;20487;-74
2022/04/27 01:56:49;;;;;;;22.70;7.82;;;;;;;3.94;100.00;101798.69;5035131;28;20033;-75
2022/04/27 01:59:15;;;;;;;18.90;7.57;;;;;;;3.92;100.00;101806.69;5026646;28;20033;-74
2022/04/27 02:01:41;;;;;;;16.98;7.47;;;;;;;3.85;100.00;101804.53;5026475;28;20017;-74
2022/04/27 02:04:07;;;;;;;15.25;7.85;;;;;;;3.77;100.00;101800.56;5026902;28;20037;-74
2022/04/27 02:06:36;;;;;;;20.63;7.90;;;;;;;3.75;100.00;101799.78;5026604;28;20017;-74
2022/04/27 02:09:06;;;;;;;21.52;8.77;;;;;;;3.71;100.00;101797.44;5010631;28;20033;-74
2022/04/27 02:11:40;;;;;;;16.38;7.78;;;;;;;3.76;100.00;101811.19;5027428;28;20029;-74
2022/04/27 02:14:06;;;;;;;22.55;8.43;;;;;;;3.71;100.00;101814.13;5018445;28;20398;-74
2022/04/27 02:16:33;;;;;;;17.92;8.55;;;;;;;3.81;100.00;101819.69;5027747;28;20406;-74
2022/04/27 02:19:01;;;;;;;16.25;8.55;;;;;;;3.81;100.00;101820.53;5026156;28;20415;-74
2022/04/27 02:21:26;;;;;;;18.98;8.18;;;;;;;3.72;100.00;101807.03;5034486;28;20030;-74
2022/04/27 02:23:52;;;;;;;16.10;7.13;;;;;;;3.62;100.00;101811.19;5018118;28;20042;-74
2022/04/27 02:26:18;;;;;;;22.38;8.88;;;;;;;3.55;100.00;101810.69;5028136;28;20036;-73
2022/04/27 02:28:43;;;;;;;15.27;7.88;;;;;;;3.49;100.00;101817.19;5011000;28;20064;-73
2022/04/27 02:31:09;;;;;;;17.17;8.48;;;;;;;3.40;100.00;101814.25;5027098;28;20078;-72
2022/04/27 02:33:35;;;;;;;13.30;7.13;;;;;;;3.33;100.00;101821.69;5027333;28;20068;-74
2022/04/27 02:36:00;;;;;;;16.83;8.43;;;;;;;3.23;100.00;101824.00;5027336;28;20025;-76
2022/04/27 02:38:27;;;;;;;16.42;7.18;;;;;;;3.18;100.00;101820.75;5010508;28;20068;-78
2022/04/27 02:40:54;;;;;;;16.15;7.88;;;;;;;3.13;100.00;101813.09;5026551;28;20026;-73
2022/04/27 02:43:21;;;;;;;18.73;7.68;;;;;;;3.09;100.00;101822.16;5027059;28;20056;-72
2022/04/27 02:45:47;;;;;;;24.23;8.07;;;;;;;3.03;100.00;101819.84;5026918;28;20033;-75
2022/04/27 02:48:12;;;;;;;17.63;8.60;;;;;;;3.04;100.00;101812.78;5027744;28;20038;-74
2022/04/27 02:53:22;;;;;;;15.20;8.18;;;;;;;3.00;100.00;101821.81;5040506;28;20039;-74
2022/04/27 02:55:49;;;;;;;24.83;9.55;;;;;;;2.94;100.00;101826.50;5026251;28;20108;-73
2022/04/27 02:58:14;;;;;;;14.93;8.20;;;;;;;2.95;100.00;101833.50;5026872;28;20477;-77
2022/04/27 03:00:40;;;;;;;18.88;8.23;;;;;;;2.90;100.00;101838.19;5026339;28;20974;-73
2022/04/27 03:03:08;;;;;;;15.50;7.43;;;;;;;2.83;100.00;101839.44;5026517;28;20032;-72
2022/04/27 03:05:33;;;;;;;13.55;7.95;;;;;;;2.74;100.00;101837.34;5026602;28;20025;-73
2022/04/27 03:07:59;;;;;;;17.30;7.93;;;;;;;2.81;100.00;101846.59;5035004;28;20040;-74
2022/04/27 03:10:26;;;;;;;17.05;8.27;;;;;;;2.79;100.00;101853.75;5026478;28;20025;-73
2022/04/27 03:12:52;;;;;;;24.88;9.35;;;;;;;2.78;100.00;101846.75;5009521;28;20044;-72
2022/04/27 03:15:17;;;;;;;20.07;9.60;;;;;;;2.80;100.00;101846.69;5026361;28;20026;-75
2022/04/27 03:17:43;;;;;;;23.08;8.85;;;;;;;2.79;100.00;101861.66;5034618;28;20087;-75
2022/04/27 03:20:09;;;;;;;23.10;9.93;;;;;;;2.80;100.00;101855.44;5026108;28;20021;-72
2022/04/27 03:22:34;;;;;;;23.90;10.73;;;;;;;2.84;100.00;101870.16;5025961;28;20538;-72
2022/04/27 03:25:03;;;;;;;20.23;9.23;;;;;;;2.75;100.00;101860.97;5010027;28;20116;-75
2022/04/27 03:27:29;;;;;;;21.63;9.07;;;;;;;2.69;100.00;101857.81;5026041;28;20030;-73
2022/04/27 03:29:54;;;;;;;14.10;8.77;;;;;;;2.64;100.00;101865.13;5008731;28;20029;-73
2022/04/27 03:32:20;;;;;;;20.48;8.82;;;;;;;2.58;100.00;101866.31;5042103;28;20532;-74
2022/04/27 03:34:53;;;;;;;22.75;9.65;;;;;;;2.56;100.00;101865.56;5010703;28;20116;-73
2022/04/27 03:37:22;;;;;;;22.50;9.55;;;;;;;2.50;100.00;101864.06;5006970;28;20041;-74
2022/04/27 03:39:47;;;;;;;21.33;9.13;;;;;;;2.52;100.00;101871.91;5023915;28;20034;-72
2022/04/27 03:42:17;;;;;;;25.08;10.57;;;;;;;2.61;100.00;101867.94;5025691;28;20125;-72
2022/04/27 03:44:46;;;;;;;22.33;9.70;;;;;;;2.69;100.00;101868.34;5010119;28;20469;-74
2022/04/27 03:47:11;;;;;;;27.30;9.93;;;;;;;2.70;100.00;101870.91;5032689;28;20056;-73
2022/04/27 03:49:37;;;;;;;23.17;9.90;;;;;;;2.70;100.00;101868.28;5025581;28;20040;-72
2022/04/27 03:52:03;;;;;;;23.77;9.97;;;;;;;2.75;100.00;101870.66;5025367;28;20109;-73
2022/04/27 03:54:29;;;;;;;22.85;10.15;;;;;;;2.79;100.00;101869.56;5025170;28;20033;-73
2022/04/27 03:56:55;;;;;;;21.30;9.80;;;;;;;2.95;100.00;101880.97;5009257;28;20940;-74
2022/04/27 03:59:20;;;;;;;23.00;9.93;;;;;;;2.97;100.00;101880.88;5005438;28;20030;-77
2022/04/27 04:01:46;;;;;;;22.80;9.77;;;;;;;2.97;100.00;101888.78;4998681;28;20034;-75
2022/04/27 04:04:11;;;;;;;24.40;11.15;;;;;;;2.95;100.00;101880.97;5025549;28;20047;-73
2022/04/27 04:06:39;;;;;;;18.60;9.37;;;;;;;2.98;100.00;101881.75;5025479;28;20086;-74
2022/04/27 04:09:05;;;;;;;23.48;9.98;;;;;;;3.06;100.00;101884.78;5017249;28;20036;-74
2022/04/27 04:11:30;;;;;;;23.95;10.30;;;;;;;3.11;100.00;101885.38;5025457;28;20018;-79
2022/04/27 04:14:05;;;;;;;19.88;10.27;;;;;;;3.16;100.00;101894.75;5017964;28;20044;-76
2022/04/27 04:16:39;;;;;;;24.58;9.82;;;;;;;3.19;100.00;101891.09;5024758;28;20043;-74
2022/04/27 04:19:12;;;;;;;18.75;8.70;;;;;;;3.19;100.00;101892.88;5023597;28;20044;-72
2022/04/27 04:21:57;;;;;;;18.70;9.57;;;;;;;3.22;100.00;101900.63;5019222;28;20091;-73
2022/04/27 04:24:37;;;;;;;24.50;8.95;;;;;;;3.14;100.00;101898.41;5021585;28;20148;-78
2022/04/27 04:29:47;;;;;;;23.77;9.23;;;;;;;3.12;100.00;101887.09;5022125;28;20455;-77
2022/04/27 04:32:12;;;;;;;25.67;10.27;;;;;;;3.12;100.00;101887.94;5023122;28;20100;-73
2022/04/27 04:35:10;;;;;;;37.63;10.45;;;;;;;3.18;100.00;101889.38;4992791;28;20057;-73
2022/04/27 04:37:35;;;;;;;23.03;10.30;;;;;;;3.23;100.00;101892.63;5020694;28;20499;-76
2022/04/27 04:40:00;;;;;;;20.83;8.90;;;;;;;3.32;100.00;101892.06;5023898;28;20411;-76
2022/04/27 04:42:26;;;;;;;15.38;8.35;;;;;;;3.35;100.00;101891.06;5024274;28;20111;-74
2022/04/27 04:44:54;;;;;;;21.02;8.98;;;;;;;3.45;100.00;101896.66;5009193;28;20025;-74
2022/04/27 04:47:42;;;;;;;18.48;9.68;;;;;;;3.54;100.00;101896.16;5026340;28;20131;-73
2022/04/27 04:50:26;;;;;;;21.17;8.95;;;;;;;3.65;100.00;101908.72;5026738;28;20040;-77
2022/04/27 04:53:20;;;;;;;18.00;9.43;;;;;;;3.73;100.00;101912.63;5019874;28;20030;-73
2022/04/27 04:56:13;;;;;;;20.98;9.57;;;;;;;3.90;100.00;101918.69;5003726;28;20033;-73
2022/04/27 04:58:38;;;;;;;23.80;10.40;;;;;;;4.31;100.00;101925.94;5023310;28;20482;-74
2022/04/27 05:01:23;;;;;;;32.40;18.10;;;;;;;4.74;100.00;101931.25;5020975;28;20051;-73
2022/04/27 05:03:57;;;;;;;29.70;11.45;;;;;;;5.08;100.00;101925.53;5012142;28;20037;-74
2022/04/27 05:06:41;;;;;;;22.42;10.55;;;;;;;6.10;100.00;101929.47;5024980;28;20056;-74
2022/04/27 05:09:26;;;;;;;20.80;8.52;;;;;;;7.10;100.00;101915.34;5007745;28;20045;-73
2022/04/27 05:11:57;;;;;;;16.27;7.40;;;;;;;8.14;100.00;101900.53;5024884;28;20125;-73
2022/04/27 05:14:43;;;;;;;15.32;6.60;;;;;;;8.88;100.00;101840.53;4995456;28;20037;-74
2022/04/27 05:17:27;;;;;;;17.90;7.90;;;;;;;8.84;100.00;101761.84;5024595;28;20469;-75
2022/04/27 05:20:13;;;;;;;;;;;;;;;9.14;100.00;101708.81;4997365;28;20517;-74
2022/04/27 05:22:58;;;;;;;13.57;6.97;;;;;;;9.56;100.00;101661.66;5027245;28;19971;-75
2022/04/27 05:25:46;;;;;;;11.73;6.38;;;;;;;9.96;96.08;101598.63;5027341;28;20120;-74
2022/04/27 05:31:58;;;;;;;10.73;6.10;;;;;;;11.27;85.66;101548.16;5025229;28;20410;-73
2022/04/27 05:34:59;;;;;;;12.07;5.82;;;;;;;11.67;84.19;101581.75;5013454;28;20045;-74
2022/04/27 05:37:50;;;;;;;15.23;4.90;;;;;;;11.96;77.49;101473.72;5026457;28;20090;-74
2022/04/27 05:40:36;;;;;;;7.93;4.70;;;;;;;12.35;74.22;101473.38;5035128;28;20120;-75
2022/04/27 05:43:10;;;;;;;13.43;5.63;;;;;;;12.10;71.42;101386.69;5025315;28;20033;-77
2022/04/27 05:45:46;;;;;;;10.05;4.18;;;;;;;12.93;70.85;101480.75;5026968;28;20079;-71
2022/04/27 05:48:31;;;;;;;15.67;5.03;;;;;;;13.05;68.15;101431.22;5030773;28;20037;-73
2022/04/27 05:51:08;;;;;;;12.02;4.65;;;;;;;12.67;70.93;101511.09;5010550;28;20026;-72
2022/04/27 05:53:45;;;;;;;11.55;5.50;;;;;;;13.29;66.99;101464.50;5024963;28;20961;-76
2022/04/27 05:56:30;;;;;;;9.88;4.55;;;;;;;13.32;66.39;101457.97;5028189;28;20056;-73
2022/04/27 05:59:17;;;;;;;;;;;;;;;13.26;67.13;101507.72;5016672;28;20045;-73
2022/04/27 06:02:03;;;;;;;9.30;5.18;;;;;;;13.76;66.00;101528.34;5019606;28;19968;-73
2022/04/27 06:04:29;;;;;;;9.75;4.15;;;;;;;14.28;64.23;101517.34;5035089;28;20025;-73
2022/04/27 06:06:54;;;;;;;12.33;4.90;;;;;;;13.97;64.61;101509.06;5026438;28;20029;-72
2022/04/27 06:09:20;;;;;;;11.02;4.55;;;;;;;14.42;64.45;101574.94;5009953;28;20036;-72
2022/04/27 06:12:07;;;;;;;8.57;4.40;;;;;;;14.05;64.06;101532.44;5018898;28;20137;-73
2022/04/27 06:14:41;;;;;;;7.93;4.20;;;;;;;14.04;61.95;101423.34;5027896;28;20057;-73
2022/04/27 06:17:39;;;;;;;12.68;4.88;;;;;;;13.30;65.89;101498.38;5020434;28;20517;-73
2022/04/27 06:20:05;;;;;;;7.82;4.63;;;;;;;13.28;67.11;101562.06;5025797;28;20029;-73
2022/04/27 06:22:31;;;;;;;15.00;5.90;;;;;;;13.07;68.03;101587.38;5007675;28;20109;-73
2022/04/27 06:24:57;;;;;;;9.18;4.47;;;;;;;13.41;68.75;101669.72;5025619;28;20041;-74
2022/04/27 06:27:41;;;;;;;17.65;5.50;;;;;;;12.62;68.24;101540.19;5032612;28;20836;-76
2022/04/27 06:30:08;;;;;;;13.35;5.43;;;;;;;12.94;69.67;101645.91;5025975;28;20034;-73
2022/04/27 06:32:36;;;;;;;9.45;5.07;;;;;;;13.58;68.38;101688.59;5017286;28;20033;-73
2022/04/27 06:35:05;;;;;;;12.73;4.53;;;;;;;13.61;67.42;101640.84;5025895;28;20632;-73
2022/04/27 06:37:32;;;;;;;14.57;4.43;;;;;;;14.36;65.00;101659.69;5026055;28;20045;-73
2022/04/27 06:39:58;;;;;;;11.75;4.47;;;;;;;13.87;64.35;101552.19;5025645;28;20026;-73
2022/04/27 06:42:24;;;;;;;10.73;4.40;;;;;;;13.76;66.76;101667.06;5022737;28;20054;-72
2022/04/27 06:45:08;;;;;;;16.85;5.10;;;;;;;13.63;67.04;101641.50;5020154;28;20275;-72
2022/04/27 06:47:53;;;;;;;12.00;5.47;;;;;;;13.30;66.17;101565.41;5025867;28;20115;-73
2022/04/27 06:50:50;;;;;;;8.60;4.80;;;;;;;13.84;65.95;101646.47;5011548;28;20885;-75
2022/04/27 06:53:36;;;;;;;11.55;5.43;;;;;;;14.07;65.93;101678.06;5015491;28;20125;-72
2022/04/27 06:56:20;;;;;;;10.07;5.05;;;;;;;13.47;64.57;101526.91;5026992;28;20200;-75
2022/04/27 06:59:07;;;;;;;10.40;5.22;;;;;;;14.14;64.56;101631.63;5019105;28;20033;-73
2022/04/27 07:01:36;;;;;;;12.90;4.35;;;;;;;14.35;65.27;101679.50;5033347;28;20069;-72
2022/04/27 07:04:11;;;;;;;9.70;4.63;;;;;;;14.38;64.43;101656.03;5025209;28;20870;-74
2022/04/27 07:06:37;;;;;;;9.90;4.82;;;;;;;14.01;64.83;101612.44;5040879;28;20560;-73
2022/04/27 07:09:04;;;;;;;10.00;5.45;;;;;;;13.82;64.74;101592.09;5026493;28;20525;-72
2022/04/27 07:11:30;;;;;;;11.07;4.85;;;;;;;14.48;63.93;101654.84;5021566;28;20040;-72
2022/04/27 07:13:55;;;;;;;11.57;5.28;;;;;;;13.98;63.71;101569.84;5026019;28;20025;-75
2022/04/27 07:16:21;;;;;;;9.77;4.87;;;;;;;14.02;66.18;101704.56;5026602;28;20042;-76
2022/04/27 07:18:46;;;;;;;12.23;5.03;;;;;;;14.24;64.79;101671.75;5025140;28;20033;-73
2022/04/27 07:21:11;;;;;;;16.27;7.50;;;;;;;14.40;65.06;101703.19;5024601;28;20099;-73
2022/04/27 07:23:38;;;;;;;10.93;4.63;;;;;;;14.91;63.80;101720.09;5025775;28;20128;-72
2022/04/27 07:26:06;;;;;;;8.75;4.45;;;;;;;13.99;64.33;101608.25;5026450;28;20037;-72
2022/04/27 07:28:31;;;;;;;13.55;5.15;;;;;;;13.76;65.52;101624.13;5025088;28;20502;-73
2022/04/27 07:30:56;;;;;;;9.83;4.50;;;;;;;13.98;65.38;101666.50;5025992;28;20068;-72
2022/04/27 07:33:23;;;;;;;13.63;5.00;;;;;;;14.49;63.73;101688.78;5024958;28;20033;-73
2022/04/27 07:35:49;;;;;;;13.60;5.65;;;;;;;13.52;64.64;101580.91;5025827;28;20052;-72
2022/04/27 07:38:14;;;;;;;11.60;5.28;;;;;;;13.66;67.32;101712.81;5024167;28;20022;-72
2022/04/27 07:40:41;;;;;;;8.07;5.70;;;;;;;14.04;66.53;101718.69;5015159;28;20048;-73
2022/04/27 07:43:06;;;;;;;12.13;5.60;;;;;;;14.08;65.04;101683.28;5024640;28;20024;-74
2022/04/27 07:45:31;;;;;;;14.13;5.27;;;;;;;13.69;65.21;101630.13;5024437;28;20573;-73
2022/04/27 07:47:57;;;;;;;12.93;4.80;;;;;;;14.52;67.08;101803.16;5008317;28;20017;-73
2022/04/27 07:50:22;;;;;;;14.10;5.37;;;;;;;14.42;64.09;101703.88;5025866;28;20033;-74
2022/04/27 07:52:47;;;;;;;11.23;4.63;;;;;;;13.86;65.91;101684.72;5025732;28;20025;-72
2022/04/27 07:55:13;;;;;;;15.30;5.90;;;;;;;13.69;66.06;101674.91;5025841;28;20040;-73
2022/04/27 07:57:39;;;;;;;16.17;4.87;;;;;;;14.25;65.88;101755.84;5025213;28;20502;-73
2022/04/27 08:00:07;;;;;;;18.30;6.82;;;;;;;14.16;62.80;101593.84;5024807;28;20292;-74
2022/04/27 08:02:40;;;;;;;14.40;5.70;;;;;;;14.18;64.84;101693.06;5024781;28;20036;-74
2022/04/27 08:05:06;;;;;;;14.63;5.40;;;;;;;14.31;64.19;101701.50;5025144;28;20132;-75
2022/04/27 08:07:39;;;;;;;20.75;7.28;;;;;;;14.35;62.82;101636.53;5025656;28;20029;-73
2022/04/27 08:10:10;;;;;;;11.05;5.43;;;;;;;14.33;63.58;101702.19;5024243;28;20160;-73
2022/04/27 08:12:35;;;;;;;12.85;5.60;;;;;;;13.40;64.73;101603.69;5025679;28;20029;-75
2022/04/27 08:15:01;;;;;;;13.20;5.23;;;;;;;13.63;64.50;101640.69;5025672;28;20035;-74
2022/04/27 08:17:26;;;;;;;14.57;5.77;;;;;;;14.12;64.53;101713.34;5012777;28;20057;-73
2022/04/27 08:21:13;;;;;;;15.43;6.10;;;;;;;14.14;64.05;101687.16;5022974;28;20025;-73
2022/04/27 08:22:37;;;;;;;8.43;5.03;;;;;;;14.38;63.33;101699.84;5024456;28;20038;-74
2022/04/27 08:25:03;;;;;;;13.13;5.97;;;;;;;14.42;61.79;101642.09;5025692;28;20403;-73
2022/04/27 08:27:28;;;;;;;19.45;5.50;;;;;;;14.45;61.36;101624.78;5024636;28;20371;-73
2022/04/27 08:29:54;;;;;;;9.20;4.57;;;;;;;15.46;62.69;101828.88;5024142;28;20044;-74
2022/04/27 08:32:19;;;;;;;11.97;4.77;;;;;;;15.83;59.48;101711.75;5025437;28;20032;-73
2022/04/27 08:34:44;;;;;;;13.77;4.90;;;;;;;15.95;57.46;101613.41;5016088;28;20029;-73
2022/04/27 08:37:10;;;;;;;16.63;6.13;;;;;;;16.03;55.99;101546.03;5032949;28;20041;-74
2022/04/27 08:39:35;;;;;;;12.23;5.87;;;;;;;16.20;58.21;101691.38;5025173;28;20037;-73
2022/04/27 08:42:00;;;;;;;17.37;5.07;;;;;;;16.16;57.08;101620.03;5025266;28;20172;-74
2022/04/27 08:44:26;;;;;;;16.07;4.60;;;;;;;16.54;57.18;101703.66;5023829;28;20033;-75
2022/04/27 08:46:53;;;;;;;9.73;4.93;;;;;;;16.91;54.80;101630.09;5025487;28;20038;-72
2022/04/27 08:49:19;;;;;;;11.48;5.68;;;;;;;16.17;53.94;101449.28;5024712;28;20029;-73
2022/04/27 08:51:44;;;;;;;14.90;4.93;;;;;;;16.06;59.01;101690.31;5027648;28;20025;-73
2022/04/27 08:54:10;;;;;;;11.77;5.30;;;;;;;16.67;56.91;101698.53;5028082;28;20151;-73
2022/04/27 08:56:35;;;;;;;10.83;5.47;;;;;;;16.94;55.51;101661.25;5011487;28;20132;-74
2022/04/27 08:59:02;;;;;;;16.17;7.20;;;;;;;16.48;53.69;101494.13;5027389;28;20029;-75
2022/04/27 09:01:28;;;;;;;11.77;6.30;;;;;;;16.96;55.30;101672.69;5027525;28;20562;-73
2022/04/27 09:04:12;;;;;;;11.57;6.97;;;;;;;17.02;53.47;101573.00;5027694;28;20100;-73
2022/04/27 09:06:41;;;;;;;21.90;9.60;;;;;;;15.87;53.64;101400.72;5028569;28;20494;-73
2022/04/27 09:09:10;;;;;;;17.85;7.80;;;;;;;15.72;54.73;101461.78;5027633;28;20030;-74
2022/04/27 09:11:37;;;;;;;13.55;6.82;;;;;;;16.39;55.19;101610.09;5028470;28;20060;-74
2022/04/27 09:14:06;;;;;;;17.67;7.13;;;;;;;17.12;53.63;101626.69;5028952;28;20052;-75
2022/04/27 09:22:06;;;;;;;10.55;5.63;;;;;;;17.75;51.27;101613.66;5019999;28;20065;-73
2022/04/27 09:24:51;;;;;;;11.05;5.35;;;;;;;18.75;50.08;101655.25;5028468;28;20381;-74
2022/04/27 09:27:22;;;;;;;11.63;5.30;;;;;;;18.59;49.33;101574.41;5010949;28;20552;-74
2022/04/27 09:29:57;;;;;;;11.63;5.07;;;;;;;18.01;48.95;101428.59;5028336;28;20431;-75
2022/04/27 09:32:22;;;;;;;15.43;5.13;;;;;;;18.21;50.01;101551.19;5028365;28;20040;-74
2022/04/27 09:34:49;;;;;;;12.55;5.53;;;;;;;18.14;48.34;101426.84;5028621;28;20030;-74
2022/04/27 09:37:24;;;;;;;7.95;5.07;;;;;;;18.34;48.86;101518.06;5028578;28;20564;-73
2022/04/27 09:40:19;;;;;;;15.63;8.03;;;;;;;18.71;47.97;101502.53;5026873;28;20116;-74
2022/04/27 09:42:46;;;;;;;25.60;16.00;;;;;;;18.82;47.19;101485.75;5004567;28;20412;-74
2022/04/27 09:45:19;;;;;;;10.40;5.25;;;;;;;19.50;46.77;101563.56;5018997;28;20025;-77
2022/04/27 09:48:05;;;;;;;8.40;4.93;;;;;;;18.53;45.97;101333.50;5026811;28;20061;-74
2022/04/27 09:50:58;;;;;;;14.25;7.43;;;;;;;19.45;46.05;101523.53;5034690;28;20100;-74
2022/04/27 09:53:24;;;;;;;11.90;7.28;;;;;;;18.98;45.33;101349.31;5022293;28;20128;-74
2022/04/27 09:55:55;;;;;;;10.52;6.03;;;;;;;19.13;44.97;101363.53;5027868;28;20588;-75
2022/04/27 09:58:25;;;;;;;13.43;6.13;;;;;;;19.12;43.92;101305.00;5026857;28;20048;-75
2022/04/27 10:00:56;;;;;;;15.75;6.28;;;;;;;18.49;45.26;101288.16;5026376;28;20029;-75
2022/04/27 10:03:25;;;;;;;12.40;5.85;;;;;;;18.45;44.72;101257.13;5026844;28;20029;-76
2022/04/27 10:05:50;;;;;;;11.10;5.55;;;;;;;19.33;45.09;101442.06;5026894;28;20796;-77
2022/04/27 10:08:19;;;;;;;21.30;7.53;;;;;;;18.85;45.96;101384.47;5027928;28;20041;-77
2022/04/27 10:10:47;;;;;;;36.97;22.33;;;;;;;18.98;45.88;101427.78;5026786;28;20086;-75
2022/04/27 10:13:15;;;;;;;18.67;7.05;;;;;;;18.18;46.24;101291.34;5026807;28;20041;-76
2022/04/27 10:15:46;;;;;;;8.65;5.30;;;;;;;18.25;47.97;101436.28;5035355;28;20034;-76
2022/04/27 10:18:18;;;;;;;11.07;7.18;;;;;;;18.45;46.02;101363.44;5028126;28;20041;-75
2022/04/27 10:20:45;;;;;;;14.52;6.38;;;;;;;18.76;46.46;101435.16;5027445;28;20557;-75
2022/04/27 10:23:18;;;;;;;12.57;6.10;;;;;;;19.13;45.89;101452.84;5027575;28;20036;-76
2022/04/27 10:26:10;;;;;;;10.55;6.35;;;;;;;19.19;45.28;101424.94;5030822;28;20075;-75
2022/04/27 10:28:38;;;;;;;17.85;8.57;;;;;;;18.58;44.76;101253.66;5027347;28;20044;-75
2022/04/27 10:31:07;;;;;;;11.05;5.10;;;;;;;18.74;47.02;101440.75;5027169;28;20031;-75
2022/04/27 10:33:51;;;;;;;12.40;6.28;;;;;;;19.22;44.88;101406.63;5026362;28;20267;-75
2022/04/27 10:36:28;;;;;;;11.32;5.72;;;;;;;19.74;42.94;101362.59;5006839;28;20398;-75
2022/04/27 10:39:09;;;;;;;10.88;5.93;;;;;;;19.29;43.34;101291.94;5022393;28;20487;-75
2022/04/27 10:41:35;;;;;;;10.40;4.93;;;;;;;19.76;44.13;101440.94;5009576;28;20042;-74
2022/04/27 10:44:01;;;;;;;6.82;4.78;;;;;;;19.53;43.01;101301.31;5010180;28;20025;-75
2022/04/27 10:46:38;;;;;;;8.68;5.40;;;;;;;19.62;42.62;101315.50;5026516;28;20070;-75
2022/04/27 10:49:23;;;;;;;10.23;5.15;;;;;;;19.23;44.55;101395.63;5018171;28;20044;-75
2022/04/27 10:52:04;;;;;;;15.75;6.65;;;;;;;19.56;42.97;101291.94;5026825;28;20061;-75
2022/04/27 10:54:37;;;;;;;13.13;5.72;;;;;;;19.30;42.87;101250.28;5025751;28;20609;-75
2022/04/27 10:57:14;;;;;;;13.02;5.18;;;;;;;19.19;44.33;101364.56;5018190;28;20570;-75
2022/04/27 10:59:43;;;;;;;9.73;5.93;;;;;;;18.46;43.42;101126.34;5025182;28;20033;-75
2022/04/27 11:02:30;;;;;;;7.57;4.93;;;;;;;19.14;44.50;101386.00;5027522;28;20487;-75
2022/04/27 11:04:56;;;;;;;12.35;6.10;;;;;;;20.32;41.17;101352.94;5026875;28;20033;-76
2022/04/27 11:07:29;;;;;;;13.80;6.72;;;;;;;20.20;41.00;101291.22;5026011;28;20021;-76
2022/04/27 11:10:11;;;;;;;9.95;5.65;;;;;;;19.81;41.26;101227.97;5026728;28;20041;-74
2022/04/27 11:12:38;;;;;;;11.52;6.13;;;;;;;20.07;41.43;101269.59;5024795;28;20422;-76
2022/04/27 11:15:08;;;;;;;12.23;5.95;;;;;;;19.94;41.92;101305.69;5027236;28;20116;-75
2022/04/27 11:17:35;;;;;;;12.18;5.93;;;;;;;21.21;40.18;101430.06;5025638;28;20108;-75
2022/04/27 11:20:03;;;;;;;9.88;5.93;;;;;;;21.72;39.17;101396.56;5033657;28;20116;-76
2022/04/27 11:22:38;;;;;;;7.35;5.00;;;;;;;19.74;42.15;101235.28;5026520;28;20048;-75
2022/04/27 11:25:06;;;;;;;10.27;6.30;;;;;;;19.10;42.70;101203.44;5018463;28;20160;-75
2022/04/27 11:27:34;;;;;;;12.20;5.93;;;;;;;20.27;42.45;101406.97;5026876;28;20530;-75
2022/04/27 11:30:01;;;;;;;15.70;5.75;;;;;;;20.24;41.12;101306.03;5026317;28;20033;-75
2022/04/27 11:32:30;;;;;;;9.07;5.93;;;;;;;20.10;41.17;101273.75;5025379;28;20049;-76
2022/04/27 11:34:55;;;;;;;9.65;6.05;;;;;;;20.53;40.77;101295.69;5026512;28;20040;-77
2022/04/27 11:37:21;;;;;;;8.53;5.57;;;;;;;20.38;40.88;101314.13;5025333;28;20029;-76
2022/04/27 11:39:48;;;;;;;14.13;6.53;;;;;;;18.27;42.68;100990.16;5029376;28;20064;-76
2022/04/27 11:42:16;;;;;;;12.35;5.75;;;;;;;18.23;44.71;101175.34;5025163;28;20580;-75
2022/04/27 11:44:42;;;;;;;13.65;6.20;;;;;;;17.27;45.92;101095.09;5025233;28;20080;-75
2022/04/27 11:47:24;;;;;;;;;;;;;;;18.89;43.38;101289.13;5026914;28;20029;-75
2022/04/27 11:49:54;;;;;;;15.80;5.88;;;;;;;19.26;42.96;101322.09;5008326;28;19971;-75
2022/04/27 11:52:19;;;;;;;7.60;5.68;;;;;;;19.57;42.06;101324.25;5025916;28;20032;-76